sensor_id;sensor_type;location;lat;lon;timestamp;P1;durP1;ratioP1;P2;durP2;ratioP2
22711;SDS011;11523;50.390;8.072;2023-10-31T00:00:12;1.75;;;0.52;;
22711;SDS011;11523;50.390;8.072;2023-10-31T00:02:38;0.50;;;0.50;;
22711;SDS011;11523;50.390;8.072;2023-10-31T00:05:04;1.00;;;0.70;;
22711;SDS011;11523;50.390;8.072;2023-10-31T00:07:30;1.02;;;0.45;;
22711;SDS011;11523;50.390;8.072;2023-10-31T00:09:56;1.10;;;0.50;;
22711;SDS011;11523;50.390;8.072;2023-10-31T00:12:22;0.40;;;0.40;;
22711;SDS011;11523;50.390;8.072;2023-10-31T00:14:48;0.55;;;0.43;;
22711;SDS011;11523;50.390;8.072;2023-10-31T00:17:14;1.15;;;0.57;;
22711;SDS011;11523;50.390;8.072;2023-10-31T00:19:40;0.40;;;0.40;;
22711;SDS011;11523;50.390;8.072;2023-10-31T00:22:06;0.50;;;0.50;;
22711;SDS011;11523;50.390;8.072;2023-10-31T00:24:31;1.65;;;0.30;;
22711;SDS011;11523;50.390;8.072;2023-10-31T00:26:58;0.40;;;0.40;;
22711;SDS011;11523;50.390;8.072;2023-10-31T00:29:24;0.57;;;0.30;;
22711;SDS011;11523;50.390;8.072;2023-10-31T00:31:50;0.50;;;0.50;;
22711;SDS011;11523;50.390;8.072;2023-10-31T00:34:16;1.40;;;0.50;;
22711;SDS011;11523;50.390;8.072;2023-10-31T00:36:42;0.60;;;0.60;;
22711;SDS011;11523;50.390;8.072;2023-10-31T00:39:08;1.33;;;0.35;;
22711;SDS011;11523;50.390;8.072;2023-10-31T00:41:34;2.03;;;0.50;;
22711;SDS011;11523;50.390;8.072;2023-10-31T00:44:00;0.90;;;0.40;;
22711;SDS011;11523;50.390;8.072;2023-10-31T00:46:26;2.58;;;0.40;;
22711;SDS011;11523;50.390;8.072;2023-10-31T00:48:52;2.95;;;0.45;;
22711;SDS011;11523;50.390;8.072;2023-10-31T00:51:18;1.38;;;0.57;;
22711;SDS011;11523;50.390;8.072;2023-10-31T00:53:44;0.47;;;0.35;;
22711;SDS011;11523;50.390;8.072;2023-10-31T00:56:10;1.02;;;0.50;;
22711;SDS011;11523;50.390;8.072;2023-10-31T00:58:36;0.63;;;0.30;;
22711;SDS011;11523;50.390;8.072;2023-10-31T01:01:02;0.90;;;0.35;;
22711;SDS011;11523;50.390;8.072;2023-10-31T01:03:28;0.88;;;0.30;;
22711;SDS011;11523;50.390;8.072;2023-10-31T01:05:53;2.33;;;0.50;;
22711;SDS011;11523;50.390;8.072;2023-10-31T01:08:19;0.40;;;0.40;;
22711;SDS011;11523;50.390;8.072;2023-10-31T01:10:45;0.35;;;0.35;;
22711;SDS011;11523;50.390;8.072;2023-10-31T01:13:11;0.65;;;0.35;;
22711;SDS011;11523;50.390;8.072;2023-10-31T01:15:37;0.40;;;0.30;;
22711;SDS011;11523;50.390;8.072;2023-10-31T01:18:03;0.30;;;0.30;;
22711;SDS011;11523;50.390;8.072;2023-10-31T01:20:30;1.20;;;0.40;;
22711;SDS011;11523;50.390;8.072;2023-10-31T01:22:56;3.03;;;0.65;;
22711;SDS011;11523;50.390;8.072;2023-10-31T01:25:22;0.30;;;0.30;;
22711;SDS011;11523;50.390;8.072;2023-10-31T01:27:48;0.73;;;0.47;;
22711;SDS011;11523;50.390;8.072;2023-10-31T01:30:14;1.83;;;0.50;;
22711;SDS011;11523;50.390;8.072;2023-10-31T01:32:40;1.70;;;0.40;;
22711;SDS011;11523;50.390;8.072;2023-10-31T01:35:06;0.30;;;0.30;;
22711;SDS011;11523;50.390;8.072;2023-10-31T01:37:32;1.48;;;0.30;;
22711;SDS011;11523;50.390;8.072;2023-10-31T01:39:58;1.55;;;0.38;;
22711;SDS011;11523;50.390;8.072;2023-10-31T01:42:24;0.60;;;0.38;;
22711;SDS011;11523;50.390;8.072;2023-10-31T01:44:50;3.30;;;0.52;;
22711;SDS011;11523;50.390;8.072;2023-10-31T01:47:16;1.05;;;0.50;;
22711;SDS011;11523;50.390;8.072;2023-10-31T01:49:42;0.40;;;0.32;;
22711;SDS011;11523;50.390;8.072;2023-10-31T01:52:08;1.17;;;0.40;;
22711;SDS011;11523;50.390;8.072;2023-10-31T01:54:34;1.30;;;0.30;;
22711;SDS011;11523;50.390;8.072;2023-10-31T01:57:01;0.93;;;0.20;;
22711;SDS011;11523;50.390;8.072;2023-10-31T01:59:28;0.40;;;0.40;;
22711;SDS011;11523;50.390;8.072;2023-10-31T02:01:54;0.38;;;0.30;;
22711;SDS011;11523;50.390;8.072;2023-10-31T02:04:21;0.40;;;0.40;;
22711;SDS011;11523;50.390;8.072;2023-10-31T02:06:47;3.72;;;0.55;;
22711;SDS011;11523;50.390;8.072;2023-10-31T02:09:12;0.35;;;0.35;;
22711;SDS011;11523;50.390;8.072;2023-10-31T02:11:38;3.05;;;0.40;;
22711;SDS011;11523;50.390;8.072;2023-10-31T02:14:04;0.95;;;0.43;;
22711;SDS011;11523;50.390;8.072;2023-10-31T02:16:30;1.05;;;0.38;;
22711;SDS011;11523;50.390;8.072;2023-10-31T02:18:56;0.50;;;0.40;;
22711;SDS011;11523;50.390;8.072;2023-10-31T02:21:22;2.03;;;0.40;;
22711;SDS011;11523;50.390;8.072;2023-10-31T02:23:59;1.98;;;0.40;;
22711;SDS011;11523;50.390;8.072;2023-10-31T02:26:32;0.47;;;0.40;;
22711;SDS011;11523;50.390;8.072;2023-10-31T02:28:58;2.03;;;0.35;;
22711;SDS011;11523;50.390;8.072;2023-10-31T02:31:25;2.83;;;0.50;;
22711;SDS011;11523;50.390;8.072;2023-10-31T02:33:51;1.70;;;0.55;;
22711;SDS011;11523;50.390;8.072;2023-10-31T02:36:17;1.67;;;0.70;;
22711;SDS011;11523;50.390;8.072;2023-10-31T02:38:43;0.40;;;0.40;;
22711;SDS011;11523;50.390;8.072;2023-10-31T02:41:09;0.63;;;0.55;;
22711;SDS011;11523;50.390;8.072;2023-10-31T02:43:35;0.60;;;0.52;;
22711;SDS011;11523;50.390;8.072;2023-10-31T02:46:01;0.77;;;0.50;;
22711;SDS011;11523;50.390;8.072;2023-10-31T02:48:27;1.65;;;0.60;;
22711;SDS011;11523;50.390;8.072;2023-10-31T02:50:54;0.68;;;0.40;;
22711;SDS011;11523;50.390;8.072;2023-10-31T02:53:20;0.75;;;0.43;;
22711;SDS011;11523;50.390;8.072;2023-10-31T02:55:46;2.72;;;0.70;;
22711;SDS011;11523;50.390;8.072;2023-10-31T02:58:11;0.90;;;0.50;;
22711;SDS011;11523;50.390;8.072;2023-10-31T03:00:38;0.88;;;0.40;;
22711;SDS011;11523;50.390;8.072;2023-10-31T03:03:04;1.77;;;0.45;;
22711;SDS011;11523;50.390;8.072;2023-10-31T03:05:30;1.15;;;0.55;;
22711;SDS011;11523;50.390;8.072;2023-10-31T03:07:56;1.20;;;0.60;;
22711;SDS011;11523;50.390;8.072;2023-10-31T03:10:21;0.40;;;0.40;;
22711;SDS011;11523;50.390;8.072;2023-10-31T03:12:47;0.75;;;0.45;;
22711;SDS011;11523;50.390;8.072;2023-10-31T03:15:13;1.00;;;0.40;;
22711;SDS011;11523;50.390;8.072;2023-10-31T03:17:39;1.00;;;0.47;;
22711;SDS011;11523;50.390;8.072;2023-10-31T03:20:06;0.50;;;0.50;;
22711;SDS011;11523;50.390;8.072;2023-10-31T03:22:32;0.70;;;0.50;;
22711;SDS011;11523;50.390;8.072;2023-10-31T03:24:57;0.47;;;0.47;;
22711;SDS011;11523;50.390;8.072;2023-10-31T03:27:23;2.33;;;0.70;;
22711;SDS011;11523;50.390;8.072;2023-10-31T03:29:49;0.43;;;0.43;;
22711;SDS011;11523;50.390;8.072;2023-10-31T03:32:15;3.15;;;0.60;;
22711;SDS011;11523;50.390;8.072;2023-10-31T03:34:41;2.25;;;0.40;;
22711;SDS011;11523;50.390;8.072;2023-10-31T03:37:07;3.20;;;0.60;;
22711;SDS011;11523;50.390;8.072;2023-10-31T03:39:33;0.73;;;0.43;;
22711;SDS011;11523;50.390;8.072;2023-10-31T03:41:59;1.77;;;0.70;;
22711;SDS011;11523;50.390;8.072;2023-10-31T03:44:25;0.70;;;0.40;;
22711;SDS011;11523;50.390;8.072;2023-10-31T03:46:51;2.05;;;0.65;;
22711;SDS011;11523;50.390;8.072;2023-10-31T03:49:17;2.20;;;0.50;;
22711;SDS011;11523;50.390;8.072;2023-10-31T03:51:43;2.95;;;0.52;;
22711;SDS011;11523;50.390;8.072;2023-10-31T03:54:09;0.70;;;0.60;;
22711;SDS011;11523;50.390;8.072;2023-10-31T03:56:42;0.73;;;0.60;;
22711;SDS011;11523;50.390;8.072;2023-10-31T03:59:08;0.77;;;0.50;;
22711;SDS011;11523;50.390;8.072;2023-10-31T04:01:34;0.85;;;0.43;;
22711;SDS011;11523;50.390;8.072;2023-10-31T04:04:00;1.95;;;0.70;;
22711;SDS011;11523;50.390;8.072;2023-10-31T04:06:26;2.30;;;0.63;;
22711;SDS011;11523;50.390;8.072;2023-10-31T04:08:52;2.30;;;0.60;;
22711;SDS011;11523;50.390;8.072;2023-10-31T04:11:18;0.90;;;0.60;;
22711;SDS011;11523;50.390;8.072;2023-10-31T04:13:44;0.68;;;0.40;;
22711;SDS011;11523;50.390;8.072;2023-10-31T04:16:10;1.50;;;0.60;;
22711;SDS011;11523;50.390;8.072;2023-10-31T04:18:36;1.05;;;0.63;;
22711;SDS011;11523;50.390;8.072;2023-10-31T04:21:02;0.50;;;0.50;;
22711;SDS011;11523;50.390;8.072;2023-10-31T04:23:28;1.85;;;0.52;;
22711;SDS011;11523;50.390;8.072;2023-10-31T04:25:54;1.10;;;0.70;;
22711;SDS011;11523;50.390;8.072;2023-10-31T04:28:20;1.27;;;0.50;;
22711;SDS011;11523;50.390;8.072;2023-10-31T04:30:46;1.35;;;0.50;;
22711;SDS011;11523;50.390;8.072;2023-10-31T04:33:12;0.95;;;0.40;;
22711;SDS011;11523;50.390;8.072;2023-10-31T04:35:44;2.20;;;0.52;;
22711;SDS011;11523;50.390;8.072;2023-10-31T04:38:10;3.60;;;0.70;;
22711;SDS011;11523;50.390;8.072;2023-10-31T04:40:36;1.83;;;0.65;;
22711;SDS011;11523;50.390;8.072;2023-10-31T04:43:02;1.67;;;0.60;;
22711;SDS011;11523;50.390;8.072;2023-10-31T04:45:28;1.13;;;0.73;;
22711;SDS011;11523;50.390;8.072;2023-10-31T04:47:54;1.15;;;0.60;;
22711;SDS011;11523;50.390;8.072;2023-10-31T04:50:20;2.25;;;0.70;;
22711;SDS011;11523;50.390;8.072;2023-10-31T04:52:46;0.57;;;0.57;;
22711;SDS011;11523;50.390;8.072;2023-10-31T04:55:12;2.00;;;0.75;;
22711;SDS011;11523;50.390;8.072;2023-10-31T04:57:44;0.85;;;0.60;;
22711;SDS011;11523;50.390;8.072;2023-10-31T05:00:10;0.75;;;0.70;;
22711;SDS011;11523;50.390;8.072;2023-10-31T05:02:36;3.70;;;0.93;;
22711;SDS011;11523;50.390;8.072;2023-10-31T05:05:02;3.40;;;0.63;;
22711;SDS011;11523;50.390;8.072;2023-10-31T05:07:28;0.63;;;0.60;;
22711;SDS011;11523;50.390;8.072;2023-10-31T05:09:54;2.30;;;0.50;;
22711;SDS011;11523;50.390;8.072;2023-10-31T05:12:20;5.30;;;1.25;;
22711;SDS011;11523;50.390;8.072;2023-10-31T05:14:46;3.10;;;1.00;;
22711;SDS011;11523;50.390;8.072;2023-10-31T05:17:12;2.03;;;1.05;;
22711;SDS011;11523;50.390;8.072;2023-10-31T05:19:38;1.33;;;0.80;;
22711;SDS011;11523;50.390;8.072;2023-10-31T05:22:04;1.20;;;0.70;;
22711;SDS011;11523;50.390;8.072;2023-10-31T05:24:30;3.20;;;0.70;;
22711;SDS011;11523;50.390;8.072;2023-10-31T05:27:03;1.02;;;0.80;;
22711;SDS011;11523;50.390;8.072;2023-10-31T05:29:32;2.38;;;0.88;;
22711;SDS011;11523;50.390;8.072;2023-10-31T05:31:58;1.00;;;0.90;;
22711;SDS011;11523;50.390;8.072;2023-10-31T05:34:25;2.33;;;1.05;;
22711;SDS011;11523;50.390;8.072;2023-10-31T05:36:51;1.17;;;0.88;;
22711;SDS011;11523;50.390;8.072;2023-10-31T05:39:17;1.15;;;0.80;;
22711;SDS011;11523;50.390;8.072;2023-10-31T05:41:43;3.63;;;0.88;;
22711;SDS011;11523;50.390;8.072;2023-10-31T05:44:09;1.77;;;0.80;;
22711;SDS011;11523;50.390;8.072;2023-10-31T05:46:38;0.70;;;0.70;;
22711;SDS011;11523;50.390;8.072;2023-10-31T05:49:06;4.00;;;1.00;;
22711;SDS011;11523;50.390;8.072;2023-10-31T05:51:32;2.25;;;0.90;;
22711;SDS011;11523;50.390;8.072;2023-10-31T05:53:58;1.10;;;0.70;;
22711;SDS011;11523;50.390;8.072;2023-10-31T05:56:24;2.78;;;0.90;;
22711;SDS011;11523;50.390;8.072;2023-10-31T05:58:50;3.45;;;0.90;;
22711;SDS011;11523;50.390;8.072;2023-10-31T06:01:16;2.13;;;1.00;;
22711;SDS011;11523;50.390;8.072;2023-10-31T06:03:42;0.95;;;0.70;;
22711;SDS011;11523;50.390;8.072;2023-10-31T06:06:09;1.35;;;0.95;;
22711;SDS011;11523;50.390;8.072;2023-10-31T06:08:35;1.23;;;0.90;;
22711;SDS011;11523;50.390;8.072;2023-10-31T06:11:01;1.17;;;0.85;;
22711;SDS011;11523;50.390;8.072;2023-10-31T06:13:27;1.10;;;0.90;;
22711;SDS011;11523;50.390;8.072;2023-10-31T06:15:54;1.23;;;0.90;;
22711;SDS011;11523;50.390;8.072;2023-10-31T06:18:20;0.52;;;0.52;;
22711;SDS011;11523;50.390;8.072;2023-10-31T06:20:46;1.00;;;0.80;;
22711;SDS011;11523;50.390;8.072;2023-10-31T06:23:12;4.78;;;1.25;;
22711;SDS011;11523;50.390;8.072;2023-10-31T06:25:38;2.35;;;1.00;;
22711;SDS011;11523;50.390;8.072;2023-10-31T06:28:04;3.58;;;1.40;;
22711;SDS011;11523;50.390;8.072;2023-10-31T06:30:30;3.83;;;1.00;;
22711;SDS011;11523;50.390;8.072;2023-10-31T06:32:56;1.55;;;0.82;;
22711;SDS011;11523;50.390;8.072;2023-10-31T06:35:22;1.10;;;1.00;;
22711;SDS011;11523;50.390;8.072;2023-10-31T06:37:55;3.78;;;1.20;;
22711;SDS011;11523;50.390;8.072;2023-10-31T06:40:24;1.45;;;0.80;;
22711;SDS011;11523;50.390;8.072;2023-10-31T06:42:50;2.83;;;1.35;;
22711;SDS011;11523;50.390;8.072;2023-10-31T06:45:16;1.25;;;1.15;;
22711;SDS011;11523;50.390;8.072;2023-10-31T06:47:42;1.25;;;1.00;;
22711;SDS011;11523;50.390;8.072;2023-10-31T06:50:08;2.80;;;0.95;;
22711;SDS011;11523;50.390;8.072;2023-10-31T06:52:35;1.63;;;1.00;;
22711;SDS011;11523;50.390;8.072;2023-10-31T06:55:03;1.20;;;0.95;;
22711;SDS011;11523;50.390;8.072;2023-10-31T06:57:29;3.33;;;1.25;;
22711;SDS011;11523;50.390;8.072;2023-10-31T06:59:55;5.38;;;1.15;;
22711;SDS011;11523;50.390;8.072;2023-10-31T07:02:21;2.35;;;1.10;;
22711;SDS011;11523;50.390;8.072;2023-10-31T07:04:47;2.10;;;1.02;;
22711;SDS011;11523;50.390;8.072;2023-10-31T07:07:14;3.72;;;1.10;;
22711;SDS011;11523;50.390;8.072;2023-10-31T07:09:40;1.35;;;1.10;;
22711;SDS011;11523;50.390;8.072;2023-10-31T07:12:06;1.52;;;1.10;;
22711;SDS011;11523;50.390;8.072;2023-10-31T07:14:32;3.20;;;1.00;;
22711;SDS011;11523;50.390;8.072;2023-10-31T07:16:58;3.22;;;1.10;;
22711;SDS011;11523;50.390;8.072;2023-10-31T07:19:24;4.03;;;1.45;;
22711;SDS011;11523;50.390;8.072;2023-10-31T07:21:50;3.53;;;1.25;;
22711;SDS011;11523;50.390;8.072;2023-10-31T07:24:16;1.63;;;1.20;;
22711;SDS011;11523;50.390;8.072;2023-10-31T07:26:42;1.65;;;1.13;;
22711;SDS011;11523;50.390;8.072;2023-10-31T07:29:08;1.20;;;1.10;;
22711;SDS011;11523;50.390;8.072;2023-10-31T07:31:34;1.65;;;1.30;;
22711;SDS011;11523;50.390;8.072;2023-10-31T07:34:03;3.45;;;1.30;;
22711;SDS011;11523;50.390;8.072;2023-10-31T07:36:29;5.05;;;1.40;;
22711;SDS011;11523;50.390;8.072;2023-10-31T07:38:57;1.85;;;1.30;;
22711;SDS011;11523;50.390;8.072;2023-10-31T07:41:23;1.55;;;1.00;;
22711;SDS011;11523;50.390;8.072;2023-10-31T07:43:49;2.58;;;1.20;;
22711;SDS011;11523;50.390;8.072;2023-10-31T07:46:15;1.50;;;1.40;;
22711;SDS011;11523;50.390;8.072;2023-10-31T07:48:41;0.90;;;0.90;;
22711;SDS011;11523;50.390;8.072;2023-10-31T07:51:07;1.30;;;1.20;;
22711;SDS011;11523;50.390;8.072;2023-10-31T07:53:33;3.00;;;1.50;;
22711;SDS011;11523;50.390;8.072;2023-10-31T07:55:59;2.20;;;1.20;;
22711;SDS011;11523;50.390;8.072;2023-10-31T07:58:25;1.33;;;1.20;;
22711;SDS011;11523;50.390;8.072;2023-10-31T08:00:51;2.38;;;1.10;;
22711;SDS011;11523;50.390;8.072;2023-10-31T08:03:17;1.88;;;1.40;;
22711;SDS011;11523;50.390;8.072;2023-10-31T08:05:43;2.78;;;1.65;;
22711;SDS011;11523;50.390;8.072;2023-10-31T08:08:09;3.92;;;1.60;;
22711;SDS011;11523;50.390;8.072;2023-10-31T08:10:34;3.35;;;1.42;;
22711;SDS011;11523;50.390;8.072;2023-10-31T08:13:00;3.35;;;1.60;;
22711;SDS011;11523;50.390;8.072;2023-10-31T08:15:26;2.42;;;1.40;;
22711;SDS011;11523;50.390;8.072;2023-10-31T08:17:52;1.63;;;1.10;;
22711;SDS011;11523;50.390;8.072;2023-10-31T08:20:18;1.63;;;1.08;;
22711;SDS011;11523;50.390;8.072;2023-10-31T08:22:45;1.17;;;1.08;;
22711;SDS011;11523;50.390;8.072;2023-10-31T08:25:10;1.30;;;1.20;;
22711;SDS011;11523;50.390;8.072;2023-10-31T08:27:37;1.20;;;1.10;;
22711;SDS011;11523;50.390;8.072;2023-10-31T08:30:03;1.13;;;1.00;;
22711;SDS011;11523;50.390;8.072;2023-10-31T08:32:29;1.30;;;1.20;;
22711;SDS011;11523;50.390;8.072;2023-10-31T08:34:55;1.38;;;1.20;;
22711;SDS011;11523;50.390;8.072;2023-10-31T08:37:22;1.52;;;1.30;;
22711;SDS011;11523;50.390;8.072;2023-10-31T08:39:48;1.77;;;1.10;;
22711;SDS011;11523;50.390;8.072;2023-10-31T08:42:14;4.97;;;1.40;;
22711;SDS011;11523;50.390;8.072;2023-10-31T08:44:40;1.95;;;1.20;;
22711;SDS011;11523;50.390;8.072;2023-10-31T08:47:06;2.72;;;1.15;;
22711;SDS011;11523;50.390;8.072;2023-10-31T08:49:32;2.13;;;1.27;;
22711;SDS011;11523;50.390;8.072;2023-10-31T08:51:58;1.20;;;1.00;;
22711;SDS011;11523;50.390;8.072;2023-10-31T08:54:27;2.60;;;1.30;;
22711;SDS011;11523;50.390;8.072;2023-10-31T08:56:53;1.83;;;1.15;;
22711;SDS011;11523;50.390;8.072;2023-10-31T08:59:19;3.40;;;2.15;;
22711;SDS011;11523;50.390;8.072;2023-10-31T09:01:44;1.13;;;1.00;;
22711;SDS011;11523;50.390;8.072;2023-10-31T09:04:10;1.10;;;1.00;;
22711;SDS011;11523;50.390;8.072;2023-10-31T09:06:36;1.40;;;1.15;;
22711;SDS011;11523;50.390;8.072;2023-10-31T09:09:02;2.05;;;1.17;;
22711;SDS011;11523;50.390;8.072;2023-10-31T09:11:29;2.13;;;1.10;;
22711;SDS011;11523;50.390;8.072;2023-10-31T09:13:55;1.08;;;0.88;;
22711;SDS011;11523;50.390;8.072;2023-10-31T09:16:21;1.38;;;1.02;;
22711;SDS011;11523;50.390;8.072;2023-10-31T09:18:47;1.15;;;1.05;;
22711;SDS011;11523;50.390;8.072;2023-10-31T09:21:13;1.33;;;1.05;;
22711;SDS011;11523;50.390;8.072;2023-10-31T09:23:39;5.63;;;1.30;;
22711;SDS011;11523;50.390;8.072;2023-10-31T09:26:05;2.75;;;1.20;;
22711;SDS011;11523;50.390;8.072;2023-10-31T09:28:31;2.53;;;1.27;;
22711;SDS011;11523;50.390;8.072;2023-10-31T09:30:57;1.77;;;1.10;;
22711;SDS011;11523;50.390;8.072;2023-10-31T09:33:25;1.33;;;1.23;;
22711;SDS011;11523;50.390;8.072;2023-10-31T09:35:51;2.90;;;1.20;;
22711;SDS011;11523;50.390;8.072;2023-10-31T09:38:17;2.03;;;1.00;;
22711;SDS011;11523;50.390;8.072;2023-10-31T09:40:43;3.30;;;1.35;;
22711;SDS011;11523;50.390;8.072;2023-10-31T09:43:09;2.20;;;1.10;;
22711;SDS011;11523;50.390;8.072;2023-10-31T09:45:35;3.35;;;0.90;;
22711;SDS011;11523;50.390;8.072;2023-10-31T09:48:02;2.65;;;1.13;;
22711;SDS011;11523;50.390;8.072;2023-10-31T09:50:28;1.52;;;1.00;;
22711;SDS011;11523;50.390;8.072;2023-10-31T09:52:55;2.60;;;0.80;;
22711;SDS011;11523;50.390;8.072;2023-10-31T09:55:22;0.90;;;0.80;;
22711;SDS011;11523;50.390;8.072;2023-10-31T09:57:48;4.05;;;0.98;;
22711;SDS011;11523;50.390;8.072;2023-10-31T10:00:14;1.27;;;1.05;;
22711;SDS011;11523;50.390;8.072;2023-10-31T10:02:40;1.00;;;0.80;;
22711;SDS011;11523;50.390;8.072;2023-10-31T10:05:07;3.45;;;1.30;;
22711;SDS011;11523;50.390;8.072;2023-10-31T10:07:34;4.03;;;0.70;;
22711;SDS011;11523;50.390;8.072;2023-10-31T10:10:00;1.25;;;1.00;;
22711;SDS011;11523;50.390;8.072;2023-10-31T10:12:34;1.40;;;1.00;;
22711;SDS011;11523;50.390;8.072;2023-10-31T10:15:00;2.15;;;0.70;;
22711;SDS011;11523;50.390;8.072;2023-10-31T10:17:26;1.48;;;0.88;;
22711;SDS011;11523;50.390;8.072;2023-10-31T10:20:09;2.03;;;0.80;;
22711;SDS011;11523;50.390;8.072;2023-10-31T10:22:39;0.70;;;0.70;;
22711;SDS011;11523;50.390;8.072;2023-10-31T10:25:08;1.25;;;0.80;;
22711;SDS011;11523;50.390;8.072;2023-10-31T10:27:36;1.60;;;0.70;;
22711;SDS011;11523;50.390;8.072;2023-10-31T10:30:03;1.35;;;0.80;;
22711;SDS011;11523;50.390;8.072;2023-10-31T10:32:29;0.82;;;0.70;;
22711;SDS011;11523;50.390;8.072;2023-10-31T10:35:01;2.10;;;1.02;;
22711;SDS011;11523;50.390;8.072;2023-10-31T10:37:27;1.35;;;0.80;;
22711;SDS011;11523;50.390;8.072;2023-10-31T10:39:55;1.08;;;0.90;;
22711;SDS011;11523;50.390;8.072;2023-10-31T10:45:03;1.48;;;0.70;;
22711;SDS011;11523;50.390;8.072;2023-10-31T10:47:31;1.27;;;0.32;;
22711;SDS011;11523;50.390;8.072;2023-10-31T10:49:58;2.60;;;1.08;;
22711;SDS011;11523;50.390;8.072;2023-10-31T10:52:29;1.08;;;0.60;;
22711;SDS011;11523;50.390;8.072;2023-10-31T10:55:00;0.60;;;0.57;;
22711;SDS011;11523;50.390;8.072;2023-10-31T10:57:36;2.65;;;0.88;;
22711;SDS011;11523;50.390;8.072;2023-10-31T11:00:11;1.48;;;0.60;;
22711;SDS011;11523;50.390;8.072;2023-10-31T11:02:39;2.33;;;1.00;;
22711;SDS011;11523;50.390;8.072;2023-10-31T11:05:08;2.50;;;0.70;;
22711;SDS011;11523;50.390;8.072;2023-10-31T11:07:38;0.90;;;0.75;;
22711;SDS011;11523;50.390;8.072;2023-10-31T11:10:04;4.22;;;0.80;;
22711;SDS011;11523;50.390;8.072;2023-10-31T11:12:31;3.80;;;0.88;;
22711;SDS011;11523;50.390;8.072;2023-10-31T11:14:58;1.00;;;0.80;;
22711;SDS011;11523;50.390;8.072;2023-10-31T11:17:34;1.85;;;0.70;;
22711;SDS011;11523;50.390;8.072;2023-10-31T11:20:01;1.80;;;0.80;;
22711;SDS011;11523;50.390;8.072;2023-10-31T11:22:41;1.08;;;0.82;;
22711;SDS011;11523;50.390;8.072;2023-10-31T11:25:09;1.15;;;0.60;;
22711;SDS011;11523;50.390;8.072;2023-10-31T11:27:50;1.08;;;0.70;;
22711;SDS011;11523;50.390;8.072;2023-10-31T11:30:20;0.88;;;0.75;;
22711;SDS011;11523;50.390;8.072;2023-10-31T11:32:52;3.08;;;0.80;;
22711;SDS011;11523;50.390;8.072;2023-10-31T11:35:18;4.32;;;0.52;;
22711;SDS011;11523;50.390;8.072;2023-10-31T11:37:47;1.98;;;0.68;;
22711;SDS011;11523;50.390;8.072;2023-10-31T11:40:21;1.48;;;0.82;;
22711;SDS011;11523;50.390;8.072;2023-10-31T11:42:48;1.63;;;0.80;;
22711;SDS011;11523;50.390;8.072;2023-10-31T11:48:03;1.73;;;0.73;;
22711;SDS011;11523;50.390;8.072;2023-10-31T11:50:30;1.98;;;1.00;;
22711;SDS011;11523;50.390;8.072;2023-10-31T11:53:06;2.85;;;0.90;;
22711;SDS011;11523;50.390;8.072;2023-10-31T11:55:34;4.05;;;0.90;;
22711;SDS011;11523;50.390;8.072;2023-10-31T11:58:16;1.40;;;0.90;;
22711;SDS011;11523;50.390;8.072;2023-10-31T12:00:43;1.20;;;0.68;;
22711;SDS011;11523;50.390;8.072;2023-10-31T12:03:10;1.25;;;0.73;;
22711;SDS011;11523;50.390;8.072;2023-10-31T12:05:36;1.52;;;0.80;;
22711;SDS011;11523;50.390;8.072;2023-10-31T12:08:02;2.50;;;0.90;;
22711;SDS011;11523;50.390;8.072;2023-10-31T12:10:28;1.30;;;0.43;;
22711;SDS011;11523;50.390;8.072;2023-10-31T12:12:58;1.77;;;0.93;;
22711;SDS011;11523;50.390;8.072;2023-10-31T12:15:24;2.45;;;1.00;;
22711;SDS011;11523;50.390;8.072;2023-10-31T12:17:50;2.70;;;0.90;;
22711;SDS011;11523;50.390;8.072;2023-10-31T12:20:16;1.23;;;0.60;;
22711;SDS011;11523;50.390;8.072;2023-10-31T12:22:42;2.05;;;0.80;;
22711;SDS011;11523;50.390;8.072;2023-10-31T12:25:10;2.40;;;0.95;;
22711;SDS011;11523;50.390;8.072;2023-10-31T12:30:09;3.60;;;1.10;;
22711;SDS011;11523;50.390;8.072;2023-10-31T12:32:35;2.85;;;1.05;;
22711;SDS011;11523;50.390;8.072;2023-10-31T12:35:01;4.88;;;0.90;;
22711;SDS011;11523;50.390;8.072;2023-10-31T12:37:27;2.10;;;0.85;;
22711;SDS011;11523;50.390;8.072;2023-10-31T12:39:53;3.85;;;1.08;;
22711;SDS011;11523;50.390;8.072;2023-10-31T12:42:19;2.03;;;1.00;;
22711;SDS011;11523;50.390;8.072;2023-10-31T12:44:46;3.45;;;0.80;;
22711;SDS011;11523;50.390;8.072;2023-10-31T12:47:20;3.53;;;1.10;;
22711;SDS011;11523;50.390;8.072;2023-10-31T12:49:47;2.25;;;1.17;;
22711;SDS011;11523;50.390;8.072;2023-10-31T12:52:13;3.53;;;1.30;;
22711;SDS011;11523;50.390;8.072;2023-10-31T12:54:39;2.45;;;0.90;;
22711;SDS011;11523;50.390;8.072;2023-10-31T12:57:05;1.52;;;1.10;;
22711;SDS011;11523;50.390;8.072;2023-10-31T12:59:32;3.05;;;0.95;;
22711;SDS011;11523;50.390;8.072;2023-10-31T13:01:58;4.95;;;1.42;;
22711;SDS011;11523;50.390;8.072;2023-10-31T13:04:28;1.65;;;0.90;;
22711;SDS011;11523;50.390;8.072;2023-10-31T13:06:55;2.80;;;1.08;;
22711;SDS011;11523;50.390;8.072;2023-10-31T13:09:21;1.52;;;0.82;;
22711;SDS011;11523;50.390;8.072;2023-10-31T13:11:47;2.97;;;0.90;;
22711;SDS011;11523;50.390;8.072;2023-10-31T13:14:13;2.25;;;1.10;;
22711;SDS011;11523;50.390;8.072;2023-10-31T13:16:39;2.63;;;1.20;;
22711;SDS011;11523;50.390;8.072;2023-10-31T13:19:05;3.35;;;1.30;;
22711;SDS011;11523;50.390;8.072;2023-10-31T13:21:31;2.25;;;1.30;;
22711;SDS011;11523;50.390;8.072;2023-10-31T13:23:57;2.75;;;1.27;;
22711;SDS011;11523;50.390;8.072;2023-10-31T13:26:23;3.33;;;1.27;;
22711;SDS011;11523;50.390;8.072;2023-10-31T13:28:49;3.03;;;1.20;;
22711;SDS011;11523;50.390;8.072;2023-10-31T13:31:15;3.42;;;1.30;;
22711;SDS011;11523;50.390;8.072;2023-10-31T13:33:41;3.20;;;1.17;;
22711;SDS011;11523;50.390;8.072;2023-10-31T13:36:07;2.75;;;1.20;;
22711;SDS011;11523;50.390;8.072;2023-10-31T13:38:36;3.53;;;1.30;;
22711;SDS011;11523;50.390;8.072;2023-10-31T13:41:03;2.92;;;1.30;;
22711;SDS011;11523;50.390;8.072;2023-10-31T13:43:29;3.70;;;1.23;;
22711;SDS011;11523;50.390;8.072;2023-10-31T13:45:55;5.10;;;1.30;;
22711;SDS011;11523;50.390;8.072;2023-10-31T13:48:21;4.45;;;1.80;;
22711;SDS011;11523;50.390;8.072;2023-10-31T13:50:47;4.75;;;1.08;;
22711;SDS011;11523;50.390;8.072;2023-10-31T13:53:14;4.82;;;1.60;;
22711;SDS011;11523;50.390;8.072;2023-10-31T13:55:41;6.50;;;1.27;;
22711;SDS011;11523;50.390;8.072;2023-10-31T13:58:07;4.18;;;1.30;;
22711;SDS011;11523;50.390;8.072;2023-10-31T14:00:33;5.15;;;0.98;;
22711;SDS011;11523;50.390;8.072;2023-10-31T14:03:00;1.63;;;0.85;;
22711;SDS011;11523;50.390;8.072;2023-10-31T14:05:26;3.03;;;1.52;;
22711;SDS011;11523;50.390;8.072;2023-10-31T14:07:52;6.50;;;1.30;;
22711;SDS011;11523;50.390;8.072;2023-10-31T14:10:18;2.22;;;1.20;;
22711;SDS011;11523;50.390;8.072;2023-10-31T14:12:45;2.95;;;1.33;;
22711;SDS011;11523;50.390;8.072;2023-10-31T14:15:11;5.07;;;1.73;;
22711;SDS011;11523;50.390;8.072;2023-10-31T14:17:37;3.90;;;1.80;;
22711;SDS011;11523;50.390;8.072;2023-10-31T14:20:03;5.05;;;1.83;;
22711;SDS011;11523;50.390;8.072;2023-10-31T14:22:29;7.97;;;2.65;;
22711;SDS011;11523;50.390;8.072;2023-10-31T14:24:55;5.75;;;1.77;;
22711;SDS011;11523;50.390;8.072;2023-10-31T14:27:21;5.50;;;1.90;;
22711;SDS011;11523;50.390;8.072;2023-10-31T14:29:47;4.13;;;1.58;;
22711;SDS011;11523;50.390;8.072;2023-10-31T14:32:13;3.55;;;1.27;;
22711;SDS011;11523;50.390;8.072;2023-10-31T14:34:39;2.05;;;1.08;;
22711;SDS011;11523;50.390;8.072;2023-10-31T14:37:05;3.08;;;1.10;;
22711;SDS011;11523;50.390;8.072;2023-10-31T14:39:31;4.32;;;1.10;;
22711;SDS011;11523;50.390;8.072;2023-10-31T14:41:57;2.47;;;1.30;;
22711;SDS011;11523;50.390;8.072;2023-10-31T14:44:23;4.47;;;1.30;;
22711;SDS011;11523;50.390;8.072;2023-10-31T14:46:49;3.15;;;1.40;;
22711;SDS011;11523;50.390;8.072;2023-10-31T14:49:15;5.35;;;1.60;;
22711;SDS011;11523;50.390;8.072;2023-10-31T14:51:41;2.17;;;1.10;;